createdAt,value
2022-12-11T00:00:17.087Z,1.10
2022-12-11T00:00:49.221Z,1.12
2022-12-11T00:01:21.352Z,1.08
2022-12-11T00:01:53.527Z,1.12
2022-12-11T00:02:25.666Z,1.12
2022-12-11T00:02:57.770Z,1.14
2022-12-11T00:03:29.910Z,1.14
2022-12-11T00:04:01.993Z,1.12
2022-12-11T00:04:34.110Z,1.10
2022-12-11T00:05:06.222Z,1.08
2022-12-11T00:05:38.376Z,1.07
2022-12-11T00:06:10.526Z,1.08
2022-12-11T00:06:42.656Z,1.10
2022-12-11T00:07:14.902Z,1.08
2022-12-11T00:07:47.104Z,1.10
2022-12-11T00:08:19.211Z,1.12
2022-12-11T00:08:51.388Z,1.10
2022-12-11T00:09:23.526Z,1.16
2022-12-11T00:09:55.696Z,1.18
2022-12-11T00:10:27.818Z,1.19
2022-12-11T00:10:59.977Z,1.18
2022-12-11T00:11:32.108Z,1.19
2022-12-11T00:12:04.250Z,1.18
2022-12-11T00:12:36.364Z,1.16
2022-12-11T00:13:08.513Z,1.15
2022-12-11T00:13:40.675Z,1.14
2022-12-11T00:14:12.811Z,1.10
2022-12-11T00:14:44.919Z,1.10
2022-12-11T00:15:17.034Z,1.10
2022-12-11T00:15:49.183Z,1.12
2022-12-11T00:16:26.521Z,1.14
2022-12-11T00:16:53.457Z,1.14
2022-12-11T00:17:25.557Z,1.10
2022-12-11T00:17:57.677Z,1.14
2022-12-11T00:18:29.825Z,1.10
2022-12-11T00:19:01.964Z,1.07
2022-12-11T00:19:34.337Z,1.06
2022-12-11T00:20:06.498Z,1.04
2022-12-11T00:20:38.724Z,1.03
2022-12-11T00:21:10.931Z,1.03
2022-12-11T00:21:43.065Z,1.01
2022-12-11T00:22:15.184Z,1.06
2022-12-11T00:22:47.321Z,1.01
2022-12-11T00:23:19.428Z,1.06
2022-12-11T00:23:51.594Z,1.06
2022-12-11T00:24:23.742Z,1.04
2022-12-11T00:24:55.816Z,1.07
2022-12-11T00:25:28.069Z,1.08
2022-12-11T00:26:00.213Z,1.08
2022-12-11T00:26:32.318Z,1.08
2022-12-11T00:27:04.433Z,1.08
2022-12-11T00:27:36.544Z,1.10
2022-12-11T00:28:08.667Z,1.08
2022-12-11T00:28:40.851Z,1.08
2022-12-11T00:29:12.965Z,1.06
2022-12-11T00:29:45.143Z,1.07
2022-12-11T00:30:17.301Z,1.07
2022-12-11T00:30:49.442Z,1.06
2022-12-11T00:31:21.652Z,1.06
2022-12-11T00:31:53.749Z,1.06
2022-12-11T00:32:28.251Z,1.06
2022-12-11T00:32:57.950Z,1.04
2022-12-11T00:33:30.080Z,1.03
2022-12-11T00:34:02.227Z,1.04
2022-12-11T00:34:34.364Z,1.03
2022-12-11T00:35:06.493Z,1.01
2022-12-11T00:35:38.625Z,1.01
2022-12-11T00:36:10.789Z,0.98
2022-12-11T00:36:42.904Z,0.97
2022-12-11T00:37:15.096Z,1.00
2022-12-11T00:37:47.161Z,0.98
2022-12-11T00:38:19.268Z,1.00
2022-12-11T00:38:51.396Z,0.98
2022-12-11T00:39:23.516Z,1.01
2022-12-11T00:39:55.683Z,1.00
2022-12-11T00:40:27.819Z,1.03
2022-12-11T00:40:59.959Z,1.03
2022-12-11T00:41:32.072Z,1.04
2022-12-11T00:42:04.197Z,1.06
2022-12-11T00:42:36.310Z,1.04
2022-12-11T00:43:08.413Z,1.03
2022-12-11T00:43:40.532Z,1.06
2022-12-11T00:44:12.672Z,1.06
2022-12-11T00:44:44.788Z,1.06
2022-12-11T00:45:16.938Z,1.06
2022-12-11T00:45:49.185Z,1.07
2022-12-11T00:46:21.341Z,1.08
2022-12-11T00:46:53.394Z,1.06
2022-12-11T00:47:25.514Z,1.07
2022-12-11T00:47:57.631Z,1.07
2022-12-11T00:48:29.783Z,1.06
2022-12-11T00:49:01.915Z,1.04
2022-12-11T00:49:34.144Z,1.04
2022-12-11T00:50:06.261Z,1.10
2022-12-11T00:50:38.386Z,1.07
2022-12-11T00:51:10.517Z,1.07
2022-12-11T00:51:42.649Z,1.07
2022-12-11T00:52:14.800Z,1.07
2022-12-11T00:52:46.927Z,1.04
2022-12-11T00:53:19.071Z,1.03
2022-12-11T00:53:51.353Z,1.03
2022-12-11T00:54:23.466Z,1.00
2022-12-11T00:54:55.611Z,1.00
2022-12-11T00:55:27.722Z,1.00
2022-12-11T00:55:59.880Z,1.00
2022-12-11T00:56:32.010Z,1.00
2022-12-11T00:57:04.142Z,0.98
2022-12-11T00:57:36.293Z,0.98
2022-12-11T00:58:08.506Z,1.00
2022-12-11T00:58:40.609Z,1.01
2022-12-11T00:59:12.786Z,1.04
2022-12-11T00:59:44.922Z,1.00
2022-12-11T01:00:17.047Z,0.98
2022-12-11T01:00:49.248Z,1.00
2022-12-11T01:01:21.479Z,0.97
2022-12-11T01:01:53.540Z,0.97
2022-12-11T01:02:25.739Z,0.97
2022-12-11T01:02:57.854Z,0.96
2022-12-11T01:03:29.960Z,0.96
2022-12-11T01:04:02.069Z,0.94
2022-12-11T01:04:34.238Z,0.94
2022-12-11T01:05:06.361Z,0.90
2022-12-11T01:05:38.493Z,0.89
2022-12-11T01:06:10.643Z,0.89
2022-12-11T01:06:42.889Z,0.88
2022-12-11T01:07:15.028Z,0.88
2022-12-11T01:07:47.252Z,0.88
2022-12-11T01:08:19.384Z,0.86
2022-12-11T01:08:51.451Z,0.85
2022-12-11T01:09:23.591Z,0.85
2022-12-11T01:09:55.725Z,0.86
2022-12-11T01:10:27.894Z,0.85
2022-12-11T01:10:59.981Z,0.83
2022-12-11T01:11:32.126Z,0.83
2022-12-11T01:12:04.256Z,0.82
2022-12-11T01:12:36.407Z,0.80
2022-12-11T01:13:08.498Z,0.79
2022-12-11T01:13:40.629Z,0.79
2022-12-11T01:14:12.735Z,0.80
2022-12-11T01:14:45.008Z,0.83
2022-12-11T01:15:17.129Z,0.82
2022-12-11T01:15:49.257Z,0.82
2022-12-11T01:16:21.440Z,0.83
2022-12-11T01:16:53.643Z,0.86
2022-12-11T01:17:25.654Z,0.86
2022-12-11T01:17:57.767Z,0.89
2022-12-11T01:18:29.895Z,0.88
2022-12-11T01:19:02.058Z,0.90
2022-12-11T01:19:34.165Z,0.92
2022-12-11T01:20:06.313Z,0.92
2022-12-11T01:20:38.474Z,0.92
2022-12-11T01:21:10.635Z,0.92
2022-12-11T01:21:42.763Z,0.90
2022-12-11T01:22:14.976Z,0.90
2022-12-11T01:22:47.116Z,0.90
2022-12-11T01:23:19.226Z,0.89
2022-12-11T01:23:51.341Z,0.88
2022-12-11T01:24:23.467Z,0.86
2022-12-11T01:24:55.611Z,0.85
2022-12-11T01:25:27.732Z,0.86
2022-12-11T01:25:59.855Z,0.83
2022-12-11T01:26:31.981Z,0.82
2022-12-11T01:27:04.111Z,0.80
2022-12-11T01:27:36.258Z,0.80
2022-12-11T01:28:08.388Z,0.82
2022-12-11T01:28:40.668Z,0.80
2022-12-11T01:29:12.793Z,0.82
2022-12-11T01:29:44.905Z,0.83
2022-12-11T01:30:17.052Z,0.83
2022-12-11T01:30:49.191Z,0.85
2022-12-11T01:31:21.317Z,0.83
2022-12-11T01:31:53.403Z,0.82
2022-12-11T01:32:25.529Z,0.82
2022-12-11T01:32:57.655Z,0.80
2022-12-11T01:33:29.807Z,0.78
2022-12-11T01:34:01.937Z,0.75
2022-12-11T01:34:34.223Z,0.75
2022-12-11T01:35:06.350Z,0.76
2022-12-11T01:35:38.487Z,0.76
2022-12-11T01:36:10.615Z,0.75
2022-12-11T01:36:42.786Z,0.72
2022-12-11T01:37:14.973Z,0.72
2022-12-11T01:37:47.075Z,0.71
2022-12-11T01:38:19.169Z,0.75
2022-12-11T01:38:51.298Z,0.72
2022-12-11T01:39:23.417Z,0.70
2022-12-11T01:39:55.577Z,0.70
2022-12-11T01:40:27.722Z,0.71
2022-12-11T01:41:00.011Z,0.70
2022-12-11T01:41:32.145Z,0.67
2022-12-11T01:42:04.276Z,0.65
2022-12-11T01:42:36.460Z,0.65
2022-12-11T01:43:08.533Z,0.70
2022-12-11T01:43:40.692Z,0.71
2022-12-11T01:44:12.818Z,0.67
2022-12-11T01:44:44.950Z,0.67
2022-12-11T01:45:17.064Z,0.70
2022-12-11T01:45:49.295Z,0.68
2022-12-11T01:46:21.441Z,0.68
2022-12-11T01:46:53.544Z,0.70
2022-12-11T01:47:25.682Z,0.68
2022-12-11T01:47:57.811Z,0.68
2022-12-11T01:48:29.960Z,0.68
2022-12-11T01:49:02.089Z,0.70
2022-12-11T01:49:34.217Z,0.71
2022-12-11T01:50:06.384Z,0.72
2022-12-11T01:50:38.504Z,0.70
2022-12-11T01:51:10.648Z,0.71
2022-12-11T01:51:42.769Z,0.71
2022-12-11T01:52:14.937Z,0.75
2022-12-11T01:52:47.053Z,0.70
2022-12-11T01:53:19.184Z,0.71
2022-12-11T01:53:51.324Z,0.70
2022-12-11T01:54:23.451Z,0.68
2022-12-11T01:54:55.647Z,0.67
2022-12-11T01:55:27.822Z,0.65
2022-12-11T01:55:59.953Z,0.67
2022-12-11T01:56:32.084Z,0.64
2022-12-11T01:57:04.193Z,0.65
2022-12-11T01:57:36.323Z,0.68
2022-12-11T01:58:08.518Z,0.67
2022-12-11T01:58:40.683Z,0.68
2022-12-11T01:59:12.851Z,0.67
2022-12-11T01:59:44.977Z,0.67
2022-12-11T02:00:17.102Z,0.67
2022-12-11T02:00:49.360Z,0.65
2022-12-11T02:01:21.342Z,0.68
2022-12-11T02:01:53.476Z,0.71
2022-12-11T02:02:25.674Z,0.67
2022-12-11T02:02:57.820Z,0.68
2022-12-11T02:03:30.003Z,0.67
2022-12-11T02:04:02.120Z,0.67
2022-12-11T02:04:34.237Z,0.68
2022-12-11T02:05:06.396Z,0.70
2022-12-11T02:05:39.198Z,0.68
2022-12-11T02:06:11.332Z,0.68
2022-12-11T02:06:43.483Z,0.67
2022-12-11T02:07:15.667Z,0.65
2022-12-11T02:07:47.871Z,0.65
2022-12-11T02:08:20.000Z,0.62
2022-12-11T02:08:52.086Z,0.65
2022-12-11T02:09:24.375Z,0.68
2022-12-11T02:09:56.507Z,0.71
2022-12-11T02:10:28.624Z,0.70
2022-12-11T02:11:00.779Z,0.70
2022-12-11T02:11:32.946Z,0.71
2022-12-11T02:12:05.076Z,0.75
2022-12-11T02:12:37.239Z,0.76
2022-12-11T02:13:09.357Z,0.76
2022-12-11T02:13:41.473Z,0.78
2022-12-11T02:14:13.630Z,0.79
2022-12-11T02:14:45.754Z,0.80
2022-12-11T02:15:17.895Z,0.78
2022-12-11T02:15:49.999Z,0.76
2022-12-11T02:16:22.171Z,0.76
2022-12-11T02:16:54.334Z,0.76
2022-12-11T02:17:26.464Z,0.75
2022-12-11T02:17:58.647Z,0.71
2022-12-11T02:18:30.774Z,0.70
2022-12-11T02:19:02.900Z,0.71
2022-12-11T02:19:35.082Z,0.68
2022-12-11T02:20:07.220Z,0.68
2022-12-11T02:20:39.375Z,0.68
2022-12-11T02:21:11.589Z,0.67
2022-12-11T02:21:43.715Z,0.67
2022-12-11T02:22:15.857Z,0.65
2022-12-11T02:22:48.104Z,0.62
2022-12-11T02:23:20.239Z,0.61
2022-12-11T02:23:52.385Z,0.62
2022-12-11T02:24:24.517Z,0.62
2022-12-11T02:24:56.703Z,0.60
2022-12-11T02:25:28.857Z,0.60
2022-12-11T02:26:01.076Z,0.53
2022-12-11T02:26:33.227Z,0.57
2022-12-11T02:27:05.386Z,0.53
2022-12-11T02:27:37.591Z,0.53
2022-12-11T02:28:09.771Z,0.57
2022-12-11T02:28:41.952Z,0.58
2022-12-11T02:29:14.132Z,0.58
2022-12-11T02:29:46.251Z,0.58
2022-12-11T02:30:18.405Z,0.62
2022-12-11T02:30:50.586Z,0.62
2022-12-11T02:31:22.803Z,0.62
2022-12-11T02:31:54.873Z,0.64
2022-12-11T02:32:26.999Z,0.67
2022-12-11T02:32:59.195Z,0.68
2022-12-11T02:33:31.350Z,0.70
2022-12-11T02:34:03.517Z,0.71
2022-12-11T02:34:35.657Z,0.72
2022-12-11T02:35:08.111Z,0.70
2022-12-11T02:35:40.032Z,0.72
2022-12-11T02:36:12.190Z,0.70
2022-12-11T02:36:44.401Z,0.68
2022-12-11T02:37:16.545Z,0.65
2022-12-11T02:37:48.716Z,0.62
2022-12-11T02:38:20.860Z,0.61
2022-12-11T02:38:53.031Z,0.60
2022-12-11T02:39:25.174Z,0.60
2022-12-11T02:39:57.371Z,0.57
2022-12-11T02:40:29.574Z,0.57
2022-12-11T02:41:01.706Z,0.57
2022-12-11T02:41:33.962Z,0.60
2022-12-11T02:42:06.096Z,0.61
2022-12-11T02:42:38.261Z,0.62
2022-12-11T02:43:10.427Z,0.62
2022-12-11T02:43:42.584Z,0.62
2022-12-11T02:44:14.781Z,0.64
2022-12-11T02:44:46.923Z,0.62
2022-12-11T02:45:19.085Z,0.62
2022-12-11T02:45:51.260Z,0.62
2022-12-11T02:46:23.352Z,0.62
2022-12-11T02:46:55.517Z,0.61
2022-12-11T02:47:27.655Z,0.60
2022-12-11T02:47:59.839Z,0.61
2022-12-11T02:48:31.970Z,0.60
2022-12-11T02:49:04.141Z,0.60
2022-12-11T02:49:36.275Z,0.60
2022-12-11T02:50:08.440Z,0.60
2022-12-11T02:50:40.628Z,0.62
2022-12-11T02:51:12.780Z,0.62
2022-12-11T02:51:44.942Z,0.62
2022-12-11T02:52:17.120Z,0.64
2022-12-11T02:52:49.261Z,0.65
2022-12-11T02:53:21.430Z,0.64
2022-12-11T02:53:53.568Z,0.64
2022-12-11T02:54:25.819Z,0.64
2022-12-11T02:54:57.954Z,0.64
2022-12-11T02:55:30.187Z,0.67
2022-12-11T02:56:02.306Z,0.64
2022-12-11T02:56:34.448Z,0.65
2022-12-11T02:57:06.577Z,0.65
2022-12-11T02:57:38.713Z,0.67
2022-12-11T02:58:10.869Z,0.67
2022-12-11T02:58:43.031Z,0.70
2022-12-11T02:59:15.167Z,0.70
2022-12-11T02:59:47.294Z,0.70
2022-12-11T03:00:19.450Z,0.68
2022-12-11T03:00:51.605Z,0.68
2022-12-11T03:01:23.759Z,0.67
2022-12-11T03:01:55.975Z,0.68
2022-12-11T03:02:28.113Z,0.68
2022-12-11T03:03:00.250Z,0.65
2022-12-11T03:03:32.395Z,0.65
2022-12-11T03:04:04.580Z,0.65
2022-12-11T03:04:36.813Z,0.64
2022-12-11T03:05:09.129Z,0.60
2022-12-11T03:05:41.091Z,0.60
2022-12-11T03:06:13.208Z,0.60
2022-12-11T03:06:45.334Z,0.58
2022-12-11T03:07:17.551Z,0.53
2022-12-11T03:07:49.845Z,0.52
2022-12-11T03:08:21.973Z,0.51
2022-12-11T03:08:54.017Z,0.48
2022-12-11T03:09:26.220Z,0.46
2022-12-11T03:09:58.339Z,0.49
2022-12-11T03:10:30.497Z,0.46
2022-12-11T03:11:02.641Z,0.48
2022-12-11T03:11:34.779Z,0.49
2022-12-11T03:12:06.917Z,0.51
2022-12-11T03:12:39.062Z,0.49
2022-12-11T03:13:11.239Z,0.49
2022-12-11T03:13:43.452Z,0.49
2022-12-11T03:14:15.594Z,0.51
2022-12-11T03:14:47.769Z,0.51
2022-12-11T03:15:19.915Z,0.46
2022-12-11T03:15:52.050Z,0.49
2022-12-11T03:16:24.297Z,0.48
2022-12-11T03:16:56.919Z,0.49
2022-12-11T03:17:29.168Z,0.51
2022-12-11T03:18:01.318Z,0.57
2022-12-11T03:18:33.546Z,0.58
2022-12-11T03:19:05.728Z,0.58
2022-12-11T03:19:37.841Z,0.58
2022-12-11T03:20:10.001Z,0.62
2022-12-11T03:20:42.144Z,0.61
2022-12-11T03:21:14.344Z,0.61
2022-12-11T03:21:46.541Z,0.60
2022-12-11T03:22:18.676Z,0.61
2022-12-11T03:22:50.814Z,0.60
2022-12-11T03:23:22.987Z,0.57
2022-12-11T03:23:55.131Z,0.57
2022-12-11T03:24:27.305Z,0.57
2022-12-11T03:24:59.461Z,0.53
2022-12-11T03:25:31.682Z,0.52
2022-12-11T03:26:03.807Z,0.52
2022-12-11T03:26:36.015Z,0.52
2022-12-11T03:27:11.098Z,0.49
2022-12-11T03:27:40.300Z,0.49
2022-12-11T03:28:12.430Z,0.51
2022-12-11T03:28:44.576Z,0.51
2022-12-11T03:29:16.804Z,0.48
2022-12-11T03:29:48.987Z,0.48
2022-12-11T03:30:21.107Z,0.46
2022-12-11T03:30:53.299Z,0.48
2022-12-11T03:31:25.362Z,0.46
2022-12-11T03:31:57.502Z,0.46
2022-12-11T03:32:29.658Z,0.48
2022-12-11T03:33:01.828Z,0.49
2022-12-11T03:33:34.036Z,0.49
2022-12-11T03:34:06.172Z,0.53
2022-12-11T03:34:38.295Z,0.53
2022-12-11T03:35:10.656Z,0.52
2022-12-11T03:35:42.663Z,0.53
2022-12-11T03:36:14.794Z,0.58
2022-12-11T03:36:46.954Z,0.58
2022-12-11T03:37:19.076Z,0.60
2022-12-11T03:37:51.311Z,0.60
2022-12-11T03:38:23.487Z,0.62
2022-12-11T03:38:55.622Z,0.62
2022-12-11T03:39:27.771Z,0.61
2022-12-11T03:39:59.933Z,0.61
2022-12-11T03:40:32.088Z,0.62
2022-12-11T03:41:04.256Z,0.64
2022-12-11T03:41:36.403Z,0.65
2022-12-11T03:42:08.562Z,0.62
2022-12-11T03:42:40.678Z,0.62
2022-12-11T03:43:12.804Z,0.60
2022-12-11T03:43:44.944Z,0.60
2022-12-11T03:44:17.121Z,0.60
2022-12-11T03:44:49.234Z,0.62
2022-12-11T03:45:21.433Z,0.61
2022-12-11T03:45:53.596Z,0.61
2022-12-11T03:46:25.756Z,0.61
2022-12-11T03:46:57.888Z,0.64
2022-12-11T03:47:30.048Z,0.65
2022-12-11T03:48:02.167Z,0.68
2022-12-11T03:48:34.370Z,0.68
2022-12-11T03:49:07.468Z,0.70
2022-12-11T03:49:39.617Z,0.68
2022-12-11T03:50:11.730Z,0.68
2022-12-11T03:50:43.904Z,0.64
2022-12-11T03:51:16.074Z,0.65
2022-12-11T03:51:48.239Z,0.67
2022-12-11T03:52:20.386Z,0.70
2022-12-11T03:52:52.553Z,0.68
2022-12-11T03:53:24.747Z,0.72
2022-12-11T03:53:56.896Z,0.72
2022-12-11T03:54:29.015Z,0.71
2022-12-11T03:55:01.209Z,0.67
2022-12-11T03:55:33.335Z,0.65
2022-12-11T03:56:05.477Z,0.65
2022-12-11T03:56:37.626Z,0.65
2022-12-11T03:57:09.766Z,0.61
2022-12-11T03:57:41.945Z,0.61
2022-12-11T03:58:14.108Z,0.61
2022-12-11T03:58:46.259Z,0.64
2022-12-11T03:59:18.412Z,0.62
2022-12-11T03:59:50.536Z,0.64
2022-12-11T04:00:22.690Z,0.67
2022-12-11T04:00:54.808Z,0.71
2022-12-11T04:01:26.999Z,0.71
2022-12-11T04:01:59.150Z,0.75
2022-12-11T04:02:31.240Z,0.75
2022-12-11T04:03:06.889Z,0.76
2022-12-11T04:03:35.508Z,0.76
2022-12-11T04:04:07.691Z,0.76
2022-12-11T04:04:39.851Z,0.76
2022-12-11T04:05:12.158Z,0.75
2022-12-11T04:05:44.149Z,0.70
2022-12-11T04:06:16.285Z,0.71
2022-12-11T04:06:48.416Z,0.67
2022-12-11T04:07:20.529Z,0.67
2022-12-11T04:07:52.774Z,0.67
2022-12-11T04:08:24.974Z,0.67
2022-12-11T04:08:57.086Z,0.68
2022-12-11T04:09:29.239Z,0.70
2022-12-11T04:10:01.397Z,0.72
2022-12-11T04:10:33.543Z,0.72
2022-12-11T04:11:05.661Z,0.72
2022-12-11T04:11:37.804Z,0.76
2022-12-11T04:12:09.918Z,0.76
2022-12-11T04:12:42.059Z,0.79
2022-12-11T04:13:14.200Z,0.78
2022-12-11T04:13:46.318Z,0.79
2022-12-11T04:14:18.470Z,0.76
2022-12-11T04:14:50.611Z,0.72
2022-12-11T04:15:22.734Z,0.70
2022-12-11T04:15:54.916Z,0.70
2022-12-11T04:16:27.003Z,0.70
2022-12-11T04:16:59.256Z,0.65
2022-12-11T04:17:31.409Z,0.62
2022-12-11T04:18:03.532Z,0.60
2022-12-11T04:18:35.667Z,0.58
2022-12-11T04:19:07.802Z,0.62
2022-12-11T04:19:39.916Z,0.64
2022-12-11T04:20:12.057Z,0.65
2022-12-11T04:20:44.186Z,0.65
2022-12-11T04:21:16.325Z,0.67
2022-12-11T04:21:48.450Z,0.70
2022-12-11T04:22:20.597Z,0.71
2022-12-11T04:22:52.743Z,0.70
2022-12-11T04:23:24.955Z,0.72
2022-12-11T04:23:57.097Z,0.75
2022-12-11T04:24:29.279Z,0.78
2022-12-11T04:25:01.422Z,0.79
2022-12-11T04:25:33.588Z,0.80
2022-12-11T04:26:05.722Z,0.80
2022-12-11T04:26:37.849Z,0.80
2022-12-11T04:27:09.973Z,0.76
2022-12-11T04:27:42.165Z,0.75
2022-12-11T04:28:14.338Z,0.72
2022-12-11T04:28:46.492Z,0.71
2022-12-11T04:29:18.643Z,0.75
2022-12-11T04:29:50.760Z,0.78
2022-12-11T04:30:22.950Z,0.75
2022-12-11T04:30:55.119Z,0.80
2022-12-11T04:31:27.237Z,0.82
2022-12-11T04:31:59.313Z,0.83
2022-12-11T04:32:31.464Z,0.86
2022-12-11T04:33:03.667Z,0.85
2022-12-11T04:33:35.803Z,0.88
2022-12-11T04:34:07.934Z,0.88
2022-12-11T04:34:40.081Z,0.89
2022-12-11T04:35:12.451Z,0.89
2022-12-11T04:35:44.370Z,0.89
2022-12-11T04:36:16.557Z,0.89
2022-12-11T04:36:48.738Z,0.89
2022-12-11T04:37:20.890Z,0.90
2022-12-11T04:37:53.034Z,0.92
2022-12-11T04:38:25.246Z,0.92
2022-12-11T04:38:57.373Z,0.92
2022-12-11T04:39:29.525Z,0.94
2022-12-11T04:40:02.353Z,0.90
2022-12-11T04:40:34.484Z,0.94
2022-12-11T04:41:06.650Z,0.92
2022-12-11T04:41:38.868Z,0.94
2022-12-11T04:42:10.969Z,0.92
2022-12-11T04:42:43.103Z,0.94
2022-12-11T04:43:15.237Z,0.90
2022-12-11T04:43:47.385Z,0.94
2022-12-11T04:44:20.496Z,0.96
2022-12-11T04:44:52.647Z,0.96
2022-12-11T04:45:24.796Z,0.94
2022-12-11T04:45:56.892Z,0.94
2022-12-11T04:46:29.080Z,0.94
2022-12-11T04:47:01.174Z,0.96
2022-12-11T04:47:33.327Z,0.97
2022-12-11T04:48:05.495Z,0.96
2022-12-11T04:48:37.670Z,0.90
2022-12-11T04:49:09.776Z,0.90
2022-12-11T04:49:42.035Z,0.90
2022-12-11T04:50:14.169Z,0.90
2022-12-11T04:50:46.320Z,0.90
2022-12-11T04:51:18.440Z,0.89
2022-12-11T04:51:50.603Z,0.88
2022-12-11T04:52:22.758Z,0.86
2022-12-11T04:52:54.881Z,0.86
2022-12-11T04:53:27.053Z,0.85
2022-12-11T04:53:59.270Z,0.83
2022-12-11T04:54:31.422Z,0.83
2022-12-11T04:55:03.575Z,0.80
2022-12-11T04:55:35.688Z,0.82
2022-12-11T04:56:07.831Z,0.82
2022-12-11T04:56:39.990Z,0.83
2022-12-11T04:57:12.128Z,0.85
2022-12-11T04:57:44.283Z,0.86
2022-12-11T04:58:16.400Z,0.88
2022-12-11T04:58:48.569Z,0.89
2022-12-11T04:59:20.700Z,0.89
2022-12-11T04:59:52.866Z,0.92
2022-12-11T05:00:25.048Z,0.88
2022-12-11T05:00:57.178Z,0.89
2022-12-11T05:01:29.350Z,0.86
2022-12-11T05:02:01.451Z,0.88
2022-12-11T05:02:33.621Z,0.86
2022-12-11T05:03:05.749Z,0.83
2022-12-11T05:03:37.852Z,0.82
2022-12-11T05:04:09.965Z,0.80
2022-12-11T05:04:42.127Z,0.80
2022-12-11T05:05:14.518Z,0.79
2022-12-11T05:05:46.427Z,0.80
2022-12-11T05:06:18.538Z,0.79
2022-12-11T05:06:50.701Z,0.79
2022-12-11T05:07:22.810Z,0.83
2022-12-11T05:07:54.986Z,0.82
2022-12-11T05:08:27.121Z,0.82
2022-12-11T05:08:59.239Z,0.83
2022-12-11T05:09:31.371Z,0.85
2022-12-11T05:10:03.526Z,0.88
2022-12-11T05:10:35.651Z,0.88
2022-12-11T05:11:07.763Z,0.88
2022-12-11T05:11:39.975Z,0.92
2022-12-11T05:12:12.068Z,0.90
2022-12-11T05:12:44.230Z,0.90
2022-12-11T05:13:16.352Z,0.92
2022-12-11T05:13:48.540Z,0.96
2022-12-11T05:14:20.710Z,0.92
2022-12-11T05:14:52.806Z,0.90
2022-12-11T05:15:31.981Z,0.90
2022-12-11T05:16:04.521Z,0.89
2022-12-11T05:16:36.606Z,0.86
2022-12-11T05:17:08.755Z,0.85
2022-12-11T05:17:40.954Z,0.83
2022-12-11T05:18:13.083Z,0.83
2022-12-11T05:18:45.218Z,0.83
2022-12-11T05:19:17.375Z,0.83
2022-12-11T05:19:49.522Z,0.85
2022-12-11T05:20:21.693Z,0.88
2022-12-11T05:20:53.805Z,0.88
2022-12-11T05:21:29.052Z,0.86
2022-12-11T05:21:58.135Z,0.88
2022-12-11T05:22:30.275Z,0.89
2022-12-11T05:23:02.382Z,0.88
2022-12-11T05:23:34.503Z,0.89
2022-12-11T05:24:06.604Z,0.86
2022-12-11T05:24:38.721Z,0.88
2022-12-11T05:25:11.138Z,0.86
2022-12-11T05:25:43.017Z,0.86
2022-12-11T05:26:15.131Z,0.85
2022-12-11T05:26:47.278Z,0.88
2022-12-11T05:27:19.369Z,0.89
2022-12-11T05:27:51.528Z,0.90
2022-12-11T05:28:23.660Z,0.92
2022-12-11T05:28:55.794Z,0.94
2022-12-11T05:29:27.919Z,0.97
2022-12-11T05:30:00.122Z,0.96
2022-12-11T05:30:32.300Z,0.96
2022-12-11T05:31:04.519Z,0.97
2022-12-11T05:31:37.188Z,0.98
2022-12-11T05:32:09.277Z,1.00
2022-12-11T05:32:41.383Z,1.03
2022-12-11T05:33:13.508Z,1.00
2022-12-11T05:33:45.644Z,1.00
2022-12-11T05:34:17.776Z,1.00
2022-12-11T05:34:49.913Z,0.97
2022-12-11T05:35:22.038Z,0.97
2022-12-11T05:35:54.188Z,0.96
2022-12-11T05:36:26.346Z,0.96
2022-12-11T05:36:58.452Z,0.97
2022-12-11T05:37:30.571Z,0.94
2022-12-11T05:38:02.717Z,0.94
2022-12-11T05:38:34.846Z,0.90
2022-12-11T05:39:06.974Z,0.89
2022-12-11T05:39:39.080Z,0.89
2022-12-11T05:40:11.190Z,0.86
2022-12-11T05:40:43.398Z,0.88
2022-12-11T05:41:15.524Z,0.88
2022-12-11T05:41:47.663Z,0.89
2022-12-11T05:42:22.875Z,0.90
2022-12-11T05:42:51.935Z,0.90
2022-12-11T05:43:24.040Z,0.90
2022-12-11T05:43:56.167Z,0.92
2022-12-11T05:44:28.288Z,0.89
2022-12-11T05:45:00.403Z,0.88
2022-12-11T05:45:32.578Z,0.88
2022-12-11T05:46:04.734Z,0.86
2022-12-11T05:46:36.896Z,0.83
2022-12-11T05:47:08.967Z,0.88
2022-12-11T05:47:41.070Z,0.85
2022-12-11T05:48:13.210Z,0.86
2022-12-11T05:48:45.321Z,0.89
2022-12-11T05:49:19.908Z,0.89
2022-12-11T05:49:49.552Z,0.90
2022-12-11T05:50:21.858Z,0.94
2022-12-11T05:50:53.991Z,0.96
2022-12-11T05:51:26.615Z,0.96
2022-12-11T05:51:59.164Z,0.94
2022-12-11T05:52:31.284Z,0.94
2022-12-11T05:53:03.460Z,0.94
2022-12-11T05:53:35.583Z,0.94
2022-12-11T05:54:07.716Z,0.92
2022-12-11T05:54:39.839Z,0.94
2022-12-11T05:55:12.222Z,0.96
2022-12-11T05:55:44.089Z,0.96
2022-12-11T05:56:16.200Z,0.96
2022-12-11T05:56:48.373Z,0.94
2022-12-11T05:57:20.506Z,0.97
2022-12-11T05:57:52.620Z,0.97
2022-12-11T05:58:24.749Z,0.96
2022-12-11T05:58:56.883Z,0.94
2022-12-11T05:59:29.022Z,0.96
2022-12-11T06:00:01.171Z,0.97
2022-12-11T06:00:36.169Z,0.96
2022-12-11T06:01:05.417Z,0.96
2022-12-11T06:01:37.660Z,0.92
2022-12-11T06:02:10.070Z,0.92
2022-12-11T06:02:42.178Z,0.94
2022-12-11T06:03:14.205Z,0.94
2022-12-11T06:03:46.251Z,0.97
2022-12-11T06:04:18.371Z,0.98
2022-12-11T06:04:50.525Z,0.96
2022-12-11T06:05:22.649Z,0.98
2022-12-11T06:05:54.750Z,0.98
2022-12-11T06:06:26.879Z,0.97
2022-12-11T06:06:59.009Z,0.97
2022-12-11T06:07:31.145Z,0.98
2022-12-11T06:08:03.308Z,0.97
2022-12-11T06:08:35.404Z,0.97
2022-12-11T06:09:07.550Z,0.98
2022-12-11T06:09:39.688Z,0.97
2022-12-11T06:10:11.864Z,0.97
2022-12-11T06:10:44.000Z,0.98
2022-12-11T06:11:20.919Z,0.97
2022-12-11T06:11:48.238Z,0.98
2022-12-11T06:12:20.404Z,0.98
2022-12-11T06:12:52.537Z,0.97
2022-12-11T06:13:24.702Z,1.00
2022-12-11T06:13:56.868Z,1.00
2022-12-11T06:14:29.000Z,1.01
2022-12-11T06:15:01.131Z,1.01
2022-12-11T06:15:33.257Z,1.01
2022-12-11T06:16:05.463Z,1.01
2022-12-11T06:16:37.534Z,1.01
2022-12-11T06:17:09.631Z,1.04
2022-12-11T06:17:41.785Z,1.04
2022-12-11T06:18:13.905Z,1.07
2022-12-11T06:18:46.047Z,1.03
2022-12-11T06:19:18.165Z,1.01
2022-12-11T06:19:50.299Z,1.01
2022-12-11T06:20:22.457Z,1.03
2022-12-11T06:20:54.594Z,1.04
2022-12-11T06:21:26.782Z,1.03
2022-12-11T06:21:58.907Z,1.01
2022-12-11T06:22:31.031Z,1.01
2022-12-11T06:23:03.186Z,1.00
2022-12-11T06:23:36.235Z,1.00
2022-12-11T06:24:08.368Z,1.01
2022-12-11T06:24:40.485Z,1.01
2022-12-11T06:25:12.924Z,1.04
2022-12-11T06:25:44.753Z,1.03
2022-12-11T06:26:16.930Z,1.03
2022-12-11T06:26:49.048Z,1.03
2022-12-11T06:27:21.182Z,1.04
2022-12-11T06:27:53.332Z,1.06
2022-12-11T06:28:25.440Z,1.04
2022-12-11T06:28:57.593Z,1.07
2022-12-11T06:29:29.752Z,1.04
2022-12-11T06:30:01.891Z,1.04
2022-12-11T06:30:37.529Z,1.04
2022-12-11T06:31:06.243Z,1.04
2022-12-11T06:31:38.466Z,1.03
2022-12-11T06:32:10.516Z,1.00
2022-12-11T06:32:42.628Z,1.00
2022-12-11T06:33:14.767Z,1.00
2022-12-11T06:33:47.006Z,1.03
2022-12-11T06:34:19.138Z,1.01
2022-12-11T06:34:51.372Z,1.04
2022-12-11T06:35:23.495Z,1.04
2022-12-11T06:35:55.619Z,1.04
2022-12-11T06:36:27.766Z,1.00
2022-12-11T06:36:59.879Z,0.97
2022-12-11T06:37:32.029Z,0.97
2022-12-11T06:38:04.217Z,0.98
2022-12-11T06:38:36.326Z,1.00
2022-12-11T06:39:08.538Z,0.98
2022-12-11T06:39:40.595Z,1.00
2022-12-11T06:40:12.744Z,1.01
2022-12-11T06:40:44.852Z,1.04
2022-12-11T06:41:16.985Z,1.04
2022-12-11T06:41:49.136Z,1.06
2022-12-11T06:42:21.283Z,1.08
2022-12-11T06:42:53.380Z,1.07
2022-12-11T06:43:25.523Z,1.10
2022-12-11T06:43:57.656Z,1.08
2022-12-11T06:44:29.788Z,1.08
2022-12-11T06:45:01.897Z,1.12
2022-12-11T06:45:34.072Z,1.07
2022-12-11T06:46:06.222Z,1.06
2022-12-11T06:46:38.303Z,1.03
2022-12-11T06:47:10.429Z,1.03
2022-12-11T06:47:42.539Z,1.00
2022-12-11T06:48:14.666Z,1.00
2022-12-11T06:48:46.804Z,1.01
2022-12-11T06:49:18.918Z,1.04
2022-12-11T06:49:51.037Z,1.04
2022-12-11T06:50:23.156Z,1.06
2022-12-11T06:50:55.262Z,1.06
2022-12-11T06:51:27.389Z,1.07
2022-12-11T06:51:59.488Z,1.07
2022-12-11T06:52:31.613Z,1.07
2022-12-11T06:53:03.795Z,1.06
2022-12-11T06:53:35.915Z,1.08
2022-12-11T06:54:08.064Z,1.10
2022-12-11T06:54:40.194Z,1.12
2022-12-11T06:55:12.552Z,1.08
2022-12-11T06:55:44.423Z,1.07
2022-12-11T06:56:16.551Z,1.03
2022-12-11T06:56:48.700Z,1.01
2022-12-11T06:57:20.830Z,1.00
2022-12-11T06:57:52.947Z,1.03
2022-12-11T06:58:25.088Z,1.04
2022-12-11T06:58:57.224Z,1.03
2022-12-11T06:59:29.309Z,1.01
2022-12-11T07:00:01.476Z,1.01
2022-12-11T07:00:33.600Z,1.01
2022-12-11T07:01:05.844Z,1.00
2022-12-11T07:01:37.889Z,1.03
2022-12-11T07:02:10.060Z,1.01
2022-12-11T07:02:42.187Z,1.01
2022-12-11T07:03:14.274Z,0.98
2022-12-11T07:03:46.398Z,1.04
2022-12-11T07:04:18.505Z,1.04
2022-12-11T07:04:54.890Z,1.03
2022-12-11T07:05:22.754Z,1.08
2022-12-11T07:05:54.984Z,1.08
2022-12-11T07:06:27.127Z,1.10
2022-12-11T07:06:59.265Z,1.12
2022-12-11T07:07:31.374Z,1.14
2022-12-11T07:08:03.538Z,1.15